Time;durP1;ratioP1;P1;durP2;ratioP2;P2;SDS_P1;SDS_P2;PMS_P1;PMS_P2;Temp;Humidity;BMP_temperature;BMP_pressure;BME280_temperature;BME280_humidity;BME280_pressure;Samples;Min_cycle;Max_cycle;Signal;HPM_P1;HPM_P2
2024/01/01 00:01:24;;;;;;;28.17;16.45;;;7.40;99.90;;;;;;5055650;28;20072;-84
2024/01/01 00:03:49;;;;;;;34.33;17.88;;;7.40;99.90;;;;;;5059619;28;20064;-82
2024/01/01 00:06:15;;;;;;;34.92;21.13;;;7.30;99.90;;;;;;5060518;28;20528;-82
2024/01/01 00:08:40;;;;;;;46.92;23.85;;;7.30;99.90;;;;;;5063417;28;20494;-82
2024/01/01 00:11:07;;;;;;;42.45;24.33;;;7.50;99.90;;;;;;5064142;28;20036;-83
2024/01/01 00:13:32;;;;;;;38.80;24.88;;;7.30;99.90;;;;;;5037927;28;20048;-83
2024/01/01 00:15:58;;;;;;;44.55;26.00;;;7.30;99.90;;;;;;5059606;28;20067;-83
2024/01/01 00:18:24;;;;;;;43.10;27.10;;;7.40;99.90;;;;;;5064853;28;20049;-80
2024/01/01 00:20:49;;;;;;;48.95;30.20;;;7.30;99.90;;;;;;5064906;28;20103;-81
2024/01/01 00:23:15;;;;;;;47.88;30.35;;;7.30;99.90;;;;;;5059003;28;20045;-81
2024/01/01 00:25:41;;;;;;;49.53;29.48;;;7.60;99.90;;;;;;5055028;28;20056;-81
2024/01/01 00:28:06;;;;;;;52.22;30.13;;;7.30;99.90;;;;;;5053105;28;20049;-81
2024/01/01 00:30:33;;;;;;;53.95;33.00;;;7.40;99.90;;;;;;5064894;28;20067;-81
2024/01/01 00:32:58;;;;;;;46.30;28.35;;;7.30;99.90;;;;;;5051446;28;20098;-81
2024/01/01 00:35:24;;;;;;;53.88;30.60;;;7.60;99.90;;;;;;5060829;28;20040;-81
2024/01/01 00:37:49;;;;;;;50.67;26.48;;;7.70;99.90;;;;;;5058520;28;20048;-81
2024/01/01 00:40:16;;;;;;;48.63;28.40;;;7.40;99.90;;;;;;5067659;28;20049;-82
2024/01/01 00:42:47;;;;;;;52.72;29.77;;;7.40;99.90;;;;;;5045557;28;20041;-81
2024/01/01 00:45:13;;;;;;;42.03;27.05;;;7.40;99.90;;;;;;5047992;28;20511;-83
2024/01/01 00:47:39;;;;;;;46.25;24.90;;;7.40;99.90;;;;;;5059881;28;20406;-81
2024/01/01 00:50:05;;;;;;;42.95;25.67;;;7.50;99.90;;;;;;5064522;28;20045;-81
2024/01/01 00:52:30;;;;;;;43.10;24.60;;;7.50;99.90;;;;;;5053506;28;20041;-81
2024/01/01 00:54:56;;;;;;;50.30;26.40;;;7.50;99.90;;;;;;5065699;28;20385;-82
2024/01/01 00:57:22;;;;;;;39.40;23.85;;;7.50;99.90;;;;;;5065255;28;20385;-81
2024/01/01 00:59:47;;;;;;;40.22;24.63;;;7.50;99.90;;;;;;5055107;28;20440;-82
2024/01/01 01:02:13;;;;;;;42.38;24.02;;;8.00;99.90;;;;;;5071891;28;20040;-81
2024/01/01 01:04:42;;;;;;;40.35;23.33;;;7.60;99.90;;;;;;5059553;28;20524;-83
2024/01/01 01:07:08;;;;;;;35.33;21.45;;;7.60;99.90;;;;;;5061186;28;20041;-82
2024/01/01 01:09:33;;;;;;;36.70;21.15;;;7.60;99.90;;;;;;5062705;28;20381;-81
2024/01/01 01:11:59;;;;;;;42.22;21.15;;;7.60;99.90;;;;;;5070606;28;20051;-82
2024/01/01 01:14:25;;;;;;;37.03;21.45;;;7.60;99.90;;;;;;5066073;28;20045;-83
2024/01/01 01:16:51;;;;;;;36.50;22.15;;;7.60;99.90;;;;;;5055891;28;20053;-81
2024/01/01 01:19:16;;;;;;;36.65;21.27;;;7.70;99.90;;;;;;5053519;28;20045;-83
2024/01/01 01:21:42;;;;;;;33.28;19.95;;;7.70;99.90;;;;;;5066547;28;20045;-82
2024/01/01 01:24:08;;;;;;;37.45;20.23;;;7.70;99.90;;;;;;5053506;28;20056;-81
2024/01/01 01:26:33;;;;;;;38.75;21.02;;;7.90;99.90;;;;;;5060983;28;20083;-81
2024/01/01 01:28:59;;;;;;;40.33;22.45;;;7.80;99.90;;;;;;5056750;28;20534;-82
2024/01/01 01:31:25;;;;;;;39.35;21.48;;;7.70;99.90;;;;;;5054437;28;20068;-81
2024/01/01 01:33:52;;;;;;;42.40;23.42;;;7.70;99.90;;;;;;5061032;28;20095;-81
2024/01/01 01:36:18;;;;;;;35.28;20.20;;;7.70;99.90;;;;;;5053152;28;20132;-82
2024/01/01 01:38:44;;;;;;;38.95;21.55;;;7.80;99.90;;;;;;5066064;28;20055;-81
2024/01/01 01:41:09;;;;;;;35.13;21.27;;;7.70;99.90;;;;;;5071937;28;20052;-83
2024/01/01 01:43:35;;;;;;;33.08;21.00;;;8.20;99.90;;;;;;5068515;28;20051;-82
2024/01/01 01:46:02;;;;;;;30.65;19.58;;;7.80;99.90;;;;;;5064355;28;20533;-82
2024/01/01 01:48:28;;;;;;;34.90;20.33;;;7.70;99.90;;;;;;5065240;28;20044;-81
2024/01/01 01:50:56;;;;;;;37.42;19.38;;;7.80;99.90;;;;;;5059524;28;20040;-82
2024/01/01 01:53:26;;;;;;;34.58;19.08;;;7.80;99.90;;;;;;5067664;28;20052;-82
2024/01/01 01:55:56;;;;;;;35.15;18.92;;;7.80;99.90;;;;;;5070811;28;20045;-83
2024/01/01 01:58:22;;;;;;;37.85;19.65;;;7.90;99.90;;;;;;5080885;28;20056;-83
2024/01/01 02:00:48;;;;;;;30.20;19.27;;;7.90;99.90;;;;;;5071787;28;20051;-82
2024/01/01 02:03:14;;;;;;;35.67;19.67;;;7.90;99.90;;;;;;5072695;28;20037;-83
2024/01/01 02:05:40;;;;;;;38.85;19.95;;;8.10;99.90;;;;;;5068261;28;20131;-83
2024/01/01 02:08:07;;;;;;;36.38;19.27;;;7.90;99.90;;;;;;5072979;28;20048;-82
2024/01/01 02:10:33;;;;;;;35.33;19.75;;;7.90;99.90;;;;;;5067203;28;20724;-82
2024/01/01 02:13:03;;;;;;;38.90;21.20;;;7.90;99.90;;;;;;5045939;28;20055;-81
2024/01/01 02:15:28;;;;;;;32.13;19.08;;;7.90;99.90;;;;;;5070375;28;20053;-83
2024/01/01 02:17:54;;;;;;;34.00;19.55;;;7.90;99.90;;;;;;5062155;28;20048;-82
2024/01/01 02:20:22;;;;;;;30.58;18.90;;;7.90;99.90;;;;;;5055092;28;20415;-81
2024/01/01 02:22:48;;;;;;;36.40;19.98;;;7.90;99.90;;;;;;5057000;28;20127;-83
2024/01/01 02:25:16;;;;;;;36.20;20.70;;;7.90;99.90;;;;;;5063523;28;20136;-81
2024/01/01 02:27:41;;;;;;;29.92;19.35;;;7.90;99.90;;;;;;5069423;28;20124;-82
2024/01/01 02:30:10;;;;;;;33.40;19.25;;;7.90;99.90;;;;;;5067043;28;20115;-82
2024/01/01 02:32:37;;;;;;;34.22;19.55;;;7.90;99.90;;;;;;5068771;28;20052;-82
2024/01/01 02:35:07;;;;;;;34.47;20.38;;;7.80;99.90;;;;;;5066635;28;20116;-82
2024/01/01 02:37:35;;;;;;;34.38;19.58;;;7.80;99.90;;;;;;5065087;28;20107;-83
2024/01/01 02:40:02;;;;;;;32.85;19.95;;;7.90;99.90;;;;;;5060981;28;20048;-82
2024/01/01 02:42:29;;;;;;;34.05;19.95;;;7.80;99.90;;;;;;5065062;28;20132;-82
2024/01/01 02:44:55;;;;;;;28.83;17.85;;;7.90;99.90;;;;;;5065324;28;20049;-81
2024/01/01 02:47:21;;;;;;;34.35;17.67;;;7.90;99.90;;;;;;5069970;28;20052;-82
2024/01/01 02:49:46;;;;;;;25.55;16.13;;;7.80;99.90;;;;;;5069376;28;20071;-81
2024/01/01 02:52:12;;;;;;;26.52;15.57;;;7.80;99.90;;;;;;5061712;28;20480;-82
2024/01/01 02:54:38;;;;;;;26.60;15.57;;;7.80;99.90;;;;;;5064897;28;20058;-81
2024/01/01 02:57:04;;;;;;;24.95;14.20;;;8.00;99.90;;;;;;5074419;28;20146;-81
2024/01/01 02:59:30;;;;;;;26.17;14.65;;;7.80;99.90;;;;;;5073501;28;20040;-82
2024/01/01 03:01:55;;;;;;;22.42;13.60;;;7.80;99.90;;;;;;5056374;28;20492;-81
2024/01/01 03:04:21;;;;;;;21.23;9.98;;;7.90;99.90;;;;;;5063181;28;20057;-81
2024/01/01 03:06:47;;;;;;;17.90;9.60;;;7.90;99.90;;;;;;5054198;28;20048;-80
2024/01/01 03:09:13;;;;;;;16.90;9.25;;;7.70;99.90;;;;;;5071741;28;20043;-81
2024/01/01 03:11:40;;;;;;;18.80;10.10;;;7.60;99.90;;;;;;5075474;28;20059;-82
2024/01/01 03:14:05;;;;;;;17.63;8.98;;;7.50;99.90;;;;;;5074423;28;20483;-81
2024/01/01 03:16:32;;;;;;;21.98;9.43;;;7.40;99.90;;;;;;5061323;28;20132;-81
2024/01/01 03:18:58;;;;;;;18.65;9.75;;;7.40;99.90;;;;;;5056334;28;20056;-81
2024/01/01 03:21:24;;;;;;;19.23;10.68;;;7.30;99.90;;;;;;5053149;28;20064;-81
2024/01/01 03:23:50;;;;;;;25.45;12.70;;;7.30;99.90;;;;;;5070096;28;20052;-81
2024/01/01 03:26:17;;;;;;;22.17;12.05;;;7.30;99.90;;;;;;5073468;28;20052;-81
2024/01/01 03:28:43;;;;;;;21.10;11.45;;;7.30;99.90;;;;;;5067399;28;20111;-81
2024/01/01 03:31:09;;;;;;;20.17;11.20;;;7.20;99.90;;;;;;5073857;28;20044;-82
2024/01/01 03:33:35;;;;;;;25.00;10.85;;;7.20;99.90;;;;;;5073661;28;20430;-81
2024/01/01 03:36:01;;;;;;;21.05;10.82;;;7.20;99.90;;;;;;5074976;28;20091;-81
2024/01/01 03:38:26;;;;;;;18.33;9.98;;;7.20;99.90;;;;;;5070923;28;20048;-81
2024/01/01 03:40:52;;;;;;;19.23;8.70;;;7.20;99.90;;;;;;5053069;28;20040;-81
2024/01/01 03:43:18;;;;;;;20.17;9.00;;;7.20;99.90;;;;;;5052945;28;20137;-81
2024/01/01 03:45:44;;;;;;;22.70;10.10;;;7.20;99.90;;;;;;5055684;28;20040;-81
2024/01/01 03:48:10;;;;;;;22.15;9.55;;;7.20;99.90;;;;;;5052535;28;20090;-82
2024/01/01 03:50:35;;;;;;;19.95;11.05;;;7.20;99.90;;;;;;5052983;28;20041;-81
2024/01/01 03:53:01;;;;;;;25.15;10.93;;;7.10;99.90;;;;;;5070224;28;20052;-81
2024/01/01 03:55:27;;;;;;;26.75;11.27;;;7.10;99.90;;;;;;5072375;28;20416;-81
2024/01/01 03:57:52;;;;;;;23.52;11.73;;;7.10;99.90;;;;;;5065902;28;20041;-82
2024/01/01 04:00:21;;;;;;;23.05;11.38;;;7.10;99.90;;;;;;5052866;28;20060;-81
2024/01/01 04:02:48;;;;;;;25.13;10.55;;;7.00;99.90;;;;;;5070126;28;20056;-81
2024/01/01 04:05:14;;;;;;;20.58;11.07;;;7.00;99.90;;;;;;5071163;28;20044;-83
2024/01/01 04:07:39;;;;;;;22.80;10.30;;;7.10;99.90;;;;;;5069510;28;20105;-81
2024/01/01 04:10:06;;;;;;;22.63;9.05;;;7.00;99.90;;;;;;5072046;28;20052;-81
2024/01/01 04:12:32;;;;;;;17.30;8.60;;;7.00;99.90;;;;;;5055751;28;20353;-81
2024/01/01 04:15:00;;;;;;;17.80;8.35;;;7.00;99.90;;;;;;5072084;28;20048;-80
2024/01/01 04:17:26;;;;;;;20.45;8.35;;;7.00;99.90;;;;;;5070162;28;20174;-83
2024/01/01 04:19:53;;;;;;;17.77;8.25;;;7.20;99.90;;;;;;5053360;28;20144;-82
2024/01/01 04:22:19;;;;;;;14.43;7.45;;;7.00;99.90;;;;;;5052161;28;20127;-83
2024/01/01 04:24:45;;;;;;;14.65;7.00;;;7.10;99.90;;;;;;5064449;28;20056;-81
2024/01/01 04:27:11;;;;;;;14.73;6.88;;;6.90;99.90;;;;;;5062543;28;20040;-80
2024/01/01 04:29:37;;;;;;;15.65;6.47;;;6.90;99.90;;;;;;5056145;28;20048;-80
2024/01/01 04:32:03;;;;;;;12.23;5.55;;;6.90;99.90;;;;;;5071064;28;20818;-82
2024/01/01 04:34:29;;;;;;;14.93;6.07;;;6.90;99.90;;;;;;5071019;28;20040;-82
2024/01/01 04:36:55;;;;;;;14.23;5.50;;;7.10;99.90;;;;;;5072244;28;20068;-81
2024/01/01 04:39:20;;;;;;;12.73;5.35;;;6.90;99.90;;;;;;5056876;28;20077;-81
2024/01/01 04:41:46;;;;;;;14.38;5.35;;;6.90;99.90;;;;;;5070758;28;20048;-81
2024/01/01 04:44:12;;;;;;;14.48;5.40;;;6.90;99.90;;;;;;5072293;28;20492;-81
2024/01/01 04:46:38;;;;;;;15.07;6.32;;;6.90;99.90;;;;;;5055046;28;20129;-81
2024/01/01 04:49:04;;;;;;;15.23;5.32;;;6.80;99.90;;;;;;5060193;28;20083;-81
2024/01/01 04:51:32;;;;;;;13.75;5.53;;;6.80;99.90;;;;;;5052767;28;20049;-80
2024/01/01 04:53:57;;;;;;;11.73;5.03;;;6.80;99.90;;;;;;5052503;28;20084;-81
2024/01/01 04:56:23;;;;;;;17.38;4.82;;;6.80;99.90;;;;;;5052669;28;20048;-81
2024/01/01 04:58:50;;;;;;;10.43;5.00;;;6.80;99.90;;;;;;5036862;28;20041;-81
2024/01/01 05:01:16;;;;;;;12.27;4.45;;;6.80;99.90;;;;;;5052195;28;20049;-82
2024/01/01 05:03:42;;;;;;;13.02;5.05;;;7.10;99.90;;;;;;5052238;28;20041;-82
2024/01/01 05:06:09;;;;;;;17.10;4.80;;;6.80;99.90;;;;;;5052211;28;20041;-81
2024/01/01 05:08:35;;;;;;;11.60;4.65;;;6.80;99.90;;;;;;5052142;28;20538;-81
2024/01/01 05:11:04;;;;;;;11.23;5.10;;;6.80;99.90;;;;;;5052410;28;20066;-82
2024/01/01 05:13:30;;;;;;;23.25;5.63;;;6.80;99.90;;;;;;5051941;28;20044;-80
2024/01/01 05:15:56;;;;;;;10.23;3.97;;;7.40;99.90;;;;;;5035741;28;20045;-81
2024/01/01 05:18:21;;;;;;;16.08;4.32;;;6.80;99.90;;;;;;5035534;28;20055;-81
2024/01/01 05:20:47;;;;;;;12.07;3.22;;;7.30;99.90;;;;;;5034854;28;20057;-82
2024/01/01 05:23:13;;;;;;;16.45;3.30;;;6.80;99.90;;;;;;5061426;28;20053;-81
2024/01/01 05:25:38;;;;;;;8.68;3.25;;;6.80;99.90;;;;;;5051242;28;20051;-81
2024/01/01 05:28:07;;;;;;;12.48;3.10;;;6.80;99.90;;;;;;5053506;28;20045;-81
2024/01/01 05:30:35;;;;;;;8.70;3.20;;;6.80;99.90;;;;;;5072110;28;20044;-82
2024/01/01 05:33:03;;;;;;;9.25;3.17;;;6.80;99.90;;;;;;5058021;28;20041;-82
2024/01/01 05:35:28;;;;;;;10.02;2.90;;;6.80;99.90;;;;;;5051904;28;20077;-81
2024/01/01 05:37:55;;;;;;;10.13;3.08;;;6.80;99.90;;;;;;5051921;28;20088;-81
2024/01/01 05:40:20;;;;;;;12.88;3.38;;;6.70;99.90;;;;;;5051783;28;20055;-82
2024/01/01 05:42:46;;;;;;;11.35;2.97;;;6.80;99.90;;;;;;5062556;28;20036;-81
2024/01/01 05:45:12;;;;;;;10.48;2.85;;;6.90;99.90;;;;;;5071526;28;20066;-82
2024/01/01 05:47:37;;;;;;;8.23;2.55;;;6.80;99.90;;;;;;5063845;28;20052;-82
2024/01/01 05:50:03;;;;;;;11.73;3.55;;;6.80;99.90;;;;;;5051556;28;20037;-82
2024/01/01 05:52:29;;;;;;;11.95;3.08;;;6.80;99.90;;;;;;5055098;28;20489;-82
2024/01/01 05:54:54;;;;;;;13.40;3.40;;;7.00;99.90;;;;;;5071520;28;20071;-82
2024/01/01 05:57:20;;;;;;;12.52;3.00;;;6.80;99.90;;;;;;5071515;28;20052;-81
2024/01/01 05:59:46;;;;;;;16.35;4.20;;;6.80;99.90;;;;;;5071518;28;20041;-82
2024/01/01 06:02:11;;;;;;;15.15;3.85;;;6.80;99.90;;;;;;5063641;28;20086;-82
2024/01/01 06:04:37;;;;;;;11.68;3.38;;;6.90;99.90;;;;;;5051281;28;20033;-82
2024/01/01 06:07:03;;;;;;;10.60;3.08;;;6.80;99.90;;;;;;5051729;28;20044;-81
2024/01/01 06:09:28;;;;;;;10.85;3.38;;;6.90;99.90;;;;;;5051570;28;20052;-81
2024/01/01 06:11:54;;;;;;;14.65;3.65;;;6.90;99.90;;;;;;5051145;28;20052;-81
2024/01/01 06:14:20;;;;;;;7.68;2.97;;;6.90;99.90;;;;;;5051786;28;20134;-81
2024/01/01 06:16:46;;;;;;;9.82;2.80;;;6.90;99.90;;;;;;5051717;28;20041;-81
2024/01/01 06:19:12;;;;;;;8.70;2.60;;;6.90;99.90;;;;;;5051521;28;20092;-81
2024/01/01 06:21:38;;;;;;;12.65;2.97;;;6.90;99.90;;;;;;5051063;28;20719;-82
2024/01/01 06:24:05;;;;;;;11.98;3.58;;;6.90;99.90;;;;;;5052206;28;20052;-81
2024/01/01 06:26:31;;;;;;;10.07;2.42;;;6.90;99.90;;;;;;5051850;28;20486;-82
2024/01/01 06:28:58;;;;;;;17.60;3.20;;;7.00;99.90;;;;;;5070640;28;20199;-82
2024/01/01 06:31:24;;;;;;;10.63;2.80;;;7.00;99.90;;;;;;5071870;28;20052;-83
2024/01/01 06:33:50;;;;;;;16.33;3.75;;;7.40;99.90;;;;;;5071390;28;20049;-82
2024/01/01 06:36:18;;;;;;;11.18;3.08;;;7.00;99.90;;;;;;5073423;28;20123;-82
2024/01/01 06:38:44;;;;;;;9.27;3.28;;;6.90;99.90;;;;;;5075371;28;20468;-83
2024/01/01 06:41:09;;;;;;;15.00;2.88;;;7.00;99.90;;;;;;5076254;28;20123;-82
2024/01/01 06:43:35;;;;;;;14.75;3.25;;;7.00;99.90;;;;;;5057455;28;20083;-82
2024/01/01 06:46:00;;;;;;;10.50;3.17;;;7.00;99.90;;;;;;5055227;28;20041;-82
2024/01/01 06:48:27;;;;;;;14.05;3.08;;;7.00;99.90;;;;;;5054494;28;20056;-82
2024/01/01 06:50:54;;;;;;;10.68;3.42;;;7.00;99.90;;;;;;5038427;28;20076;-82
2024/01/01 06:53:19;;;;;;;8.63;2.80;;;7.00;99.90;;;;;;5070799;28;20393;-81
2024/01/01 06:55:45;;;;;;;10.65;2.35;;;7.00;99.90;;;;;;5075816;28;20048;-82
2024/01/01 06:58:10;;;;;;;8.90;2.40;;;7.00;99.90;;;;;;5076136;28;20155;-81
2024/01/01 07:00:36;;;;;;;9.90;2.45;;;7.00;99.90;;;;;;5079480;28;20041;-82
2024/01/01 07:03:02;;;;;;;11.07;2.72;;;7.00;99.90;;;;;;5065109;28;20048;-82
2024/01/01 07:05:29;;;;;;;12.57;2.78;;;7.00;99.90;;;;;;5071500;28;20082;-82
2024/01/01 07:07:55;;;;;;;10.85;2.53;;;7.10;99.90;;;;;;5067917;28;20431;-82
2024/01/01 07:10:20;;;;;;;13.50;2.88;;;7.00;99.90;;;;;;5068274;28;20102;-83
2024/01/01 07:12:46;;;;;;;12.82;3.13;;;7.00;99.90;;;;;;5054122;28;20045;-81
2024/01/01 07:15:12;;;;;;;11.98;3.08;;;7.30;99.90;;;;;;5055624;28;20105;-82
2024/01/01 07:17:37;;;;;;;7.95;2.80;;;7.00;99.90;;;;;;5063577;28;20412;-82
2024/01/01 07:20:06;;;;;;;12.00;3.13;;;7.00;99.90;;;;;;5053789;28;20053;-82
2024/01/01 07:22:32;;;;;;;13.63;4.20;;;7.00;99.90;;;;;;5053686;28;20045;-81
2024/01/01 07:24:57;;;;;;;11.32;3.78;;;7.00;99.90;;;;;;5053893;28;20963;-81
2024/01/01 07:27:23;;;;;;;13.38;4.93;;;7.00;99.90;;;;;;5057870;28;20084;-82
2024/01/01 07:29:49;;;;;;;10.93;3.90;;;7.10;99.90;;;;;;5054086;28;20388;-82
2024/01/01 07:32:14;;;;;;;11.43;3.40;;;7.10;99.90;;;;;;5054219;28;20052;-82
2024/01/01 07:34:40;;;;;;;14.85;3.80;;;7.10;99.90;;;;;;5037272;28;20485;-82
2024/01/01 07:37:06;;;;;;;12.10;4.25;;;7.10;99.90;;;;;;5054941;28;20045;-82
2024/01/01 07:39:32;;;;;;;14.43;3.70;;;7.10;99.90;;;;;;5053797;28;20048;-82
2024/01/01 07:41:58;;;;;;;10.40;3.00;;;7.10;99.90;;;;;;5053473;28;20381;-81
2024/01/01 07:44:24;;;;;;;9.43;2.70;;;7.10;99.90;;;;;;5053835;28;20045;-81
2024/01/01 07:46:50;;;;;;;11.77;3.22;;;7.10;99.90;;;;;;5053389;28;20499;-81
2024/01/01 07:49:16;;;;;;;11.30;2.95;;;7.10;99.90;;;;;;5073564;28;20091;-82
2024/01/01 07:51:41;;;;;;;9.02;2.53;;;7.10;99.90;;;;;;5071397;28;20044;-81
2024/01/01 07:54:07;;;;;;;10.57;3.35;;;7.00;99.90;;;;;;5055387;28;20373;-81
2024/01/01 07:56:33;;;;;;;9.45;3.00;;;7.10;99.90;;;;;;5058728;28;20048;-82
2024/01/01 07:58:58;;;;;;;8.48;2.50;;;7.10;99.90;;;;;;5053200;28;20045;-82
2024/01/01 08:01:24;;;;;;;10.30;2.65;;;7.10;99.90;;;;;;5058866;28;20049;-81
2024/01/01 08:03:50;;;;;;;10.32;2.92;;;7.00;99.90;;;;;;5055222;28;20063;-81
2024/01/01 08:06:17;;;;;;;11.98;2.85;;;7.40;99.90;;;;;;5053669;28;20075;-82
2024/01/01 08:08:43;;;;;;;11.10;3.05;;;7.10;99.90;;;;;;5053397;28;20123;-81
2024/01/01 08:11:09;;;;;;;12.25;2.72;;;7.00;99.90;;;;;;5059290;28;20091;-83
2024/01/01 08:13:36;;;;;;;14.73;3.58;;;7.00;99.90;;;;;;5041253;28;20052;-81
2024/01/01 08:16:02;;;;;;;13.43;3.10;;;7.50;99.90;;;;;;5036637;28;20048;-82
2024/01/01 08:18:28;;;;;;;6.68;1.73;;;7.00;99.90;;;;;;5065088;28;20055;-81
2024/01/01 08:20:54;;;;;;;10.00;2.30;;;7.00;99.90;;;;;;5052764;28;20095;-81
2024/01/01 08:23:20;;;;;;;8.77;2.03;;;7.00;99.90;;;;;;5066419;28;20384;-81
2024/01/01 08:25:46;;;;;;;12.07;2.00;;;7.00;99.90;;;;;;5056737;28;20041;-81
2024/01/01 08:28:12;;;;;;;6.47;2.00;;;7.00;99.90;;;;;;5062559;28;20044;-81
2024/01/01 08:30:39;;;;;;;5.22;0.80;;;7.00;99.90;;;;;;5058485;28;20480;-81
2024/01/01 08:33:05;;;;;;;6.25;0.75;;;7.00;99.90;;;;;;5053094;28;20442;-81
2024/01/01 08:35:31;;;;;;;2.63;0.70;;;6.90;99.90;;;;;;5059741;28;20124;-81
2024/01/01 08:37:57;;;;;;;1.65;0.50;;;6.90;99.90;;;;;;5053769;28;20120;-81
2024/01/01 08:40:23;;;;;;;4.63;1.08;;;6.80;99.90;;;;;;5052710;28;20127;-81
2024/01/01 08:42:50;;;;;;;2.40;0.70;;;6.80;99.90;;;;;;5059354;28;20037;-82
2024/01/01 08:45:19;;;;;;;3.97;1.10;;;6.80;99.90;;;;;;5053847;28;20076;-81
2024/01/01 08:47:45;;;;;;;11.00;1.98;;;6.80;99.90;;;;;;5058502;28;20051;-82
2024/01/01 08:50:12;;;;;;;5.68;0.85;;;7.00;99.90;;;;;;5060977;28;20076;-82
2024/01/01 08:52:37;;;;;;;3.20;0.68;;;6.80;99.90;;;;;;5053568;28;20056;-82
2024/01/01 08:55:04;;;;;;;5.25;0.77;;;6.80;99.90;;;;;;5051881;28;20049;-85
2024/01/01 08:57:30;;;;;;;7.65;0.90;;;6.80;99.90;;;;;;5057237;28;20048;-82
2024/01/01 08:59:55;;;;;;;7.07;1.35;;;6.80;99.90;;;;;;5036330;28;20047;-82
2024/01/01 09:02:21;;;;;;;5.18;0.93;;;6.80;99.90;;;;;;5053210;28;20045;-82
2024/01/01 09:04:47;;;;;;;4.60;1.52;;;6.90;99.90;;;;;;5068018;28;20411;-81
2024/01/01 09:07:12;;;;;;;9.57;1.77;;;6.90;99.90;;;;;;5065282;28;20338;-83
2024/01/01 09:09:38;;;;;;;10.35;2.22;;;7.00;99.90;;;;;;5050818;28;20052;-84
2024/01/01 09:12:04;;;;;;;9.80;1.73;;;7.00;99.90;;;;;;5061208;28;20051;-82
2024/01/01 09:14:30;;;;;;;9.02;2.25;;;7.10;99.90;;;;;;5058658;28;20056;-83
2024/01/01 09:16:55;;;;;;;7.32;2.28;;;7.20;99.90;;;;;;5048303;28;20385;-82
2024/01/01 09:19:21;;;;;;;10.40;2.97;;;7.20;99.90;;;;;;5052197;28;20053;-82
2024/01/01 09:21:46;;;;;;;10.82;2.53;;;7.20;99.90;;;;;;5066365;28;20036;-81
2024/01/01 09:24:12;;;;;;;10.82;2.60;;;7.30;99.90;;;;;;5052395;28;20044;-83
2024/01/01 09:26:39;;;;;;;19.10;2.90;;;7.30;99.90;;;;;;5035797;28;20416;-82
2024/01/01 09:29:05;;;;;;;14.00;3.30;;;7.30;99.90;;;;;;5055536;28;20044;-82
2024/01/01 09:31:33;;;;;;;10.82;2.60;;;7.30;99.90;;;;;;5064100;28;20036;-82
2024/01/01 09:34:01;;;;;;;16.73;2.65;;;7.30;99.90;;;;;;5057664;28;20380;-83
2024/01/01 09:36:30;;;;;;;10.10;2.95;;;7.30;99.90;;;;;;5051967;28;20467;-82
2024/01/01 09:38:56;;;;;;;8.60;2.85;;;7.30;99.90;;;;;;5060103;28;20049;-82
2024/01/01 09:41:25;;;;;;;11.10;2.47;;;7.40;99.90;;;;;;5064056;28;20053;-83
2024/01/01 09:43:52;;;;;;;13.07;2.47;;;7.30;99.90;;;;;;5058253;28;20045;-84
2024/01/01 09:46:18;;;;;;;12.85;2.67;;;7.30;99.90;;;;;;5051279;28;20064;-85
2024/01/01 09:48:45;;;;;;;12.00;3.80;;;7.40;99.90;;;;;;5057552;28;20045;-83
2024/01/01 09:51:11;;;;;;;14.20;2.85;;;7.30;99.90;;;;;;5053817;28;20074;-83
2024/01/01 09:53:37;;;;;;;13.40;2.50;;;7.40;99.90;;;;;;5061530;28;20044;-84
2024/01/01 09:56:03;;;;;;;9.75;2.60;;;7.40;99.90;;;;;;5056351;28;20539;-83
2024/01/01 09:58:38;;;;;;;12.45;2.20;;;7.40;99.90;;;;;;5052181;28;20159;-83
2024/01/01 10:01:19;;;;;;;9.80;2.25;;;7.60;99.90;;;;;;5058170;28;20060;-82
2024/01/01 10:04:03;;;;;;;9.98;2.05;;;7.40;99.90;;;;;;5068709;28;20041;-82
2024/01/01 10:06:34;;;;;;;14.30;3.03;;;7.40;99.90;;;;;;5065152;28;20129;-83
2024/01/01 10:09:09;;;;;;;12.65;2.28;;;7.50;99.90;;;;;;5070944;28;20040;-83
2024/01/01 10:11:40;;;;;;;11.27;2.85;;;7.50;99.90;;;;;;5055672;28;20044;-85
2024/01/01 10:14:10;;;;;;;12.20;2.67;;;7.50;99.90;;;;;;5076044;28;20048;-83
2024/01/01 10:16:38;;;;;;;6.18;1.77;;;7.50;99.90;;;;;;5089429;28;20048;-83
2024/01/01 10:19:04;;;;;;;18.85;3.20;;;7.50;99.90;;;;;;5062441;28;20053;-84
2024/01/01 10:21:31;;;;;;;13.13;2.70;;;7.50;99.90;;;;;;5059205;28;20060;-84
2024/01/01 10:23:58;;;;;;;17.85;2.58;;;7.60;99.90;;;;;;5056074;28;20468;-83
2024/01/01 10:26:24;;;;;;;14.38;2.28;;;7.50;99.90;;;;;;5060345;28;20455;-81
2024/01/01 10:28:50;;;;;;;12.30;1.95;;;7.50;99.90;;;;;;5071032;28;20045;-83
2024/01/01 10:31:16;;;;;;;12.55;3.33;;;7.70;99.90;;;;;;5058757;28;20607;-84
2024/01/01 10:33:43;;;;;;;9.73;2.53;;;7.50;99.90;;;;;;5067291;28;20045;-83
2024/01/01 10:36:09;;;;;;;10.45;2.20;;;7.50;99.90;;;;;;5045797;28;20408;-83
2024/01/01 10:38:39;;;;;;;11.63;2.45;;;7.50;99.90;;;;;;5073430;28;20040;-83
2024/01/01 10:41:06;;;;;;;20.00;5.90;;;7.80;99.90;;;;;;5061543;28;20467;-82
2024/01/01 10:43:35;;;;;;;16.08;6.35;;;7.60;99.90;;;;;;5054737;28;20049;-81
2024/01/01 10:46:03;;;;;;;12.23;3.38;;;7.70;99.90;;;;;;5054930;28;20041;-82
2024/01/01 10:48:33;;;;;;;20.98;9.80;;;7.60;99.90;;;;;;5054027;28;20147;-82
2024/01/01 10:51:11;;;;;;;14.90;4.50;;;7.60;99.90;;;;;;5060639;28;20049;-82
2024/01/01 10:54:05;;;;;;;11.73;3.03;;;7.60;99.90;;;;;;5054099;28;20124;-82
2024/01/01 10:56:49;;;;;;;13.13;2.92;;;7.60;99.90;;;;;;5055612;28;20053;-81
2024/01/01 10:59:20;;;;;;;12.13;2.05;;;7.60;99.90;;;;;;5061712;28;20053;-82
2024/01/01 11:01:49;;;;;;;13.68;2.20;;;7.60;99.90;;;;;;5059319;28;20045;-82
2024/01/01 11:04:19;;;;;;;10.60;2.17;;;7.50;99.90;;;;;;5063702;28;20457;-82
2024/01/01 11:06:45;;;;;;;8.52;1.58;;;7.50;99.90;;;;;;5067064;28;20072;-82
2024/01/01 11:09:19;;;;;;;10.07;1.65;;;7.50;99.90;;;;;;5063222;28;20094;-82
2024/01/01 11:11:49;;;;;;;8.55;1.45;;;7.70;99.90;;;;;;5072900;28;20055;-81
2024/01/01 11:14:26;;;;;;;10.70;1.42;;;7.60;99.90;;;;;;5056199;28;20056;-83
2024/01/01 11:16:53;;;;;;;9.00;1.52;;;7.70;99.90;;;;;;5069641;28;20511;-83
2024/01/01 11:19:39;;;;;;;15.20;2.22;;;7.70;99.90;;;;;;5053011;28;20404;-82
2024/01/01 11:22:20;;;;;;;11.70;1.73;;;7.80;99.90;;;;;;5052240;28;20080;-81
2024/01/01 11:24:50;;;;;;;11.77;2.00;;;7.80;99.90;;;;;;5061007;28;20140;-84
2024/01/01 11:27:31;;;;;;;12.95;1.63;;;7.80;99.90;;;;;;5070344;28;20107;-83
2024/01/01 11:30:01;;;;;;;10.23;1.70;;;7.90;99.90;;;;;;5063647;28;20036;-82
2024/01/01 11:32:26;;;;;;;11.40;1.92;;;7.90;99.90;;;;;;5053289;28;20099;-82
2024/01/01 11:35:12;;;;;;;18.83;1.75;;;7.90;99.90;;;;;;5053330;28;20142;-82
2024/01/01 11:37:41;;;;;;;10.45;1.55;;;8.00;99.90;;;;;;5068219;28;20044;-80
2024/01/01 11:40:09;;;;;;;9.57;2.05;;;8.00;99.90;;;;;;5069457;28;20040;-80
2024/01/01 11:42:35;;;;;;;13.10;2.17;;;8.00;99.90;;;;;;5053867;28;20061;-82
2024/01/01 11:45:12;;;;;;;11.88;2.30;;;8.00;99.90;;;;;;5053416;28;20052;-83
2024/01/01 11:47:39;;;;;;;6.90;1.70;;;8.10;99.90;;;;;;5072101;28;20047;-83
2024/01/01 11:50:06;;;;;;;13.40;1.85;;;8.10;99.90;;;;;;5067402;28;20052;-83
2024/01/01 11:52:32;;;;;;;9.57;2.10;;;8.10;99.90;;;;;;5065074;28;20067;-84
2024/01/01 11:54:58;;;;;;;8.48;2.20;;;8.30;99.90;;;;;;5073012;28;20036;-83
2024/01/01 11:57:24;;;;;;;10.65;1.88;;;8.10;99.90;;;;;;5066643;28;20477;-83
2024/01/01 11:59:50;;;;;;;11.88;1.58;;;8.40;99.90;;;;;;5064004;28;20037;-80
2024/01/01 12:02:17;;;;;;;6.95;1.92;;;8.10;99.90;;;;;;5056042;28;20074;-81
2024/01/01 12:04:49;;;;;;;11.18;1.80;;;8.10;99.90;;;;;;5072836;28;20114;-82
2024/01/01 12:07:33;;;;;;;10.35;1.67;;;8.10;99.90;;;;;;5062267;28;20049;-81
2024/01/01 12:10:06;;;;;;;12.90;1.83;;;8.10;99.90;;;;;;5072452;28;20048;-81
2024/01/01 12:12:36;;;;;;;9.97;1.60;;;8.20;99.90;;;;;;5073503;28;20094;-81
2024/01/01 12:15:08;;;;;;;12.98;1.88;;;8.10;99.90;;;;;;5062616;28;20060;-81
2024/01/01 12:17:44;;;;;;;9.40;1.42;;;8.10;99.90;;;;;;5053119;28;20786;-81
2024/01/01 12:20:13;;;;;;;14.75;1.65;;;8.10;99.90;;;;;;5052730;28;20136;-81
2024/01/01 12:22:39;;;;;;;9.88;1.48;;;8.10;99.90;;;;;;5059337;28;20041;-85
2024/01/01 12:25:06;;;;;;;10.20;1.40;;;8.10;99.90;;;;;;5052693;28;20535;-83
2024/01/01 12:27:31;;;;;;;11.27;1.75;;;8.00;99.90;;;;;;5063773;28;20473;-81
2024/01/01 12:29:58;;;;;;;8.32;1.63;;;8.00;99.90;;;;;;5065464;28;20051;-80
2024/01/01 12:32:24;;;;;;;9.93;1.77;;;8.00;99.90;;;;;;5072680;28;20044;-81
2024/01/01 12:34:54;;;;;;;7.57;1.17;;;8.00;99.90;;;;;;5072984;28;20530;-80
2024/01/01 12:37:20;;;;;;;12.82;1.55;;;8.00;99.90;;;;;;5047095;28;20067;-82
2024/01/01 12:39:46;;;;;;;7.22;1.10;;;7.90;99.90;;;;;;5048024;28;20044;-81
2024/01/01 12:42:11;;;;;;;7.57;0.95;;;7.90;99.90;;;;;;5072515;28;20075;-81
2024/01/01 12:44:38;;;;;;;8.02;1.30;;;7.90;99.90;;;;;;5072277;28;20131;-80